Reserve, Kansas
Current Conditions -  °F | °C
As of 5:53 AM on Friday 31 Oct 2014 (Local Time) from KFNB Reporting Station
Broken Clouds Broken Clouds  
Wind Chill: 24°   Ceiling: 3100
Heat Index: 33°   Visibility: 10mi
Dew Point: 23°   Wind: 12mph
Humidity: 66%   Direction: 350°N
Pressure: 30.45"   Gusts: NA
Location:  39.9123°N, 95.5098°W
Report Text: KFNB 311053Z AUTO 35010KT 10SM BKN031 01/M05 A3045 RMK AO2 SLP313 T00061050
Loading
Personal Weather Stations






























Interactive Weather Map
Tropical Storm Tracking
New forecast layout! Learn more

10-Day Weather Forecast

Advertisements
Track Severe Weather on mobile